createdAt,value
2022-12-01T00:04:11.365Z,101935.92
2022-12-01T00:09:33.516Z,101931.75
2022-12-01T00:14:37.134Z,101932.84
2022-12-01T00:19:40.346Z,101935.97
2022-12-01T00:24:43.550Z,101940.20
2022-12-01T00:29:47.464Z,101944.58
2022-12-01T00:34:50.886Z,101942.14
2022-12-01T00:39:54.095Z,101940.04
2022-12-01T00:44:57.405Z,101938.67
2022-12-01T00:50:00.512Z,101937.49
2022-12-01T00:55:04.230Z,101934.73
2022-12-01T01:00:08.360Z,101934.61
2022-12-01T01:05:11.575Z,101929.73
2022-12-01T01:10:14.876Z,101926.13
2022-12-01T01:15:20.205Z,101925.84
2022-12-01T01:20:23.340Z,101923.97
2022-12-01T01:25:26.853Z,101923.30
2022-12-01T01:30:30.231Z,101915.23
2022-12-01T01:35:33.579Z,101915.46
2022-12-01T01:40:46.412Z,101913.92
2022-12-01T01:45:49.651Z,101911.15
2022-12-01T01:50:53.034Z,101912.78
2022-12-01T01:55:56.238Z,101911.73
2022-12-01T02:00:59.491Z,101911.21
2022-12-01T02:06:05.149Z,101902.58
2022-12-01T02:11:31.771Z,101902.52
2022-12-01T02:17:08.300Z,101905.04
2022-12-01T02:22:53.519Z,101909.72
2022-12-01T02:28:18.163Z,101910.03
2022-12-01T02:33:26.696Z,101908.97
2022-12-01T02:38:58.472Z,101913.73
2022-12-01T02:44:16.835Z,101914.25
2022-12-01T02:49:26.186Z,101916.73
2022-12-01T02:54:31.935Z,101918.85
2022-12-01T02:59:35.058Z,101919.58
2022-12-01T03:04:41.241Z,101920.34
2022-12-01T03:10:09.636Z,101913.86
2022-12-01T03:15:31.599Z,101914.75
2022-12-01T03:20:49.745Z,101912.48
2022-12-01T03:25:56.740Z,101911.50
2022-12-01T03:31:07.483Z,101913.88
2022-12-01T03:36:15.646Z,101910.75
2022-12-01T03:41:25.515Z,101910.60
2022-12-01T03:46:50.632Z,101914.00
2022-12-01T03:51:59.573Z,101916.89
2022-12-01T03:57:11.689Z,101916.77
2022-12-01T04:02:15.205Z,101918.59
2022-12-01T04:07:18.312Z,101922.19
2022-12-01T04:12:30.435Z,101919.05
2022-12-01T04:17:34.779Z,101914.88
2022-12-01T04:22:38.281Z,101913.33
2022-12-01T04:27:41.586Z,101908.95
2022-12-01T04:32:44.796Z,101904.80
2022-12-01T04:37:48.106Z,101904.70
2022-12-01T04:42:51.209Z,101905.82
2022-12-01T04:47:54.729Z,101906.02
2022-12-01T04:52:57.831Z,101906.80
2022-12-01T04:58:02.678Z,101911.10
2022-12-01T05:03:12.130Z,101913.79
2022-12-01T05:08:18.308Z,101912.02
2022-12-01T05:13:21.515Z,101913.95
2022-12-01T05:18:25.096Z,101911.84
2022-12-01T05:23:32.034Z,101910.79
2022-12-01T05:28:35.978Z,101910.77
2022-12-01T05:33:39.675Z,101916.02
2022-12-01T05:38:42.984Z,101918.64
2022-12-01T05:43:46.091Z,101918.96
2022-12-01T05:48:49.299Z,101922.81
2022-12-01T05:53:52.405Z,101920.54
2022-12-01T05:58:55.615Z,101920.70
2022-12-01T06:03:59.153Z,101921.25
2022-12-01T06:09:02.239Z,101921.61
2022-12-01T06:14:05.752Z,101921.78
2022-12-01T06:19:09.062Z,101923.32
2022-12-01T06:24:12.270Z,101924.86
2022-12-01T06:29:15.473Z,101922.70
2022-12-01T06:34:19.094Z,101927.77
2022-12-01T06:39:23.224Z,101929.20
2022-12-01T06:44:26.437Z,101929.52
2022-12-01T06:49:29.741Z,101932.77
2022-12-01T06:54:33.869Z,101934.09
2022-12-01T06:59:37.384Z,101928.74
2022-12-01T07:04:40.696Z,101926.02
2022-12-01T07:09:43.905Z,101922.11
2022-12-01T07:14:47.215Z,101921.41
2022-12-01T07:19:50.507Z,101928.00
2022-12-01T07:24:54.041Z,101933.63
2022-12-01T07:29:57.142Z,101932.69
2022-12-01T07:35:00.353Z,101935.78
2022-12-01T07:40:04.892Z,101938.75
2022-12-01T07:45:10.353Z,101939.98
2022-12-01T07:50:14.160Z,101938.39
2022-12-01T07:55:17.793Z,101936.23
2022-12-01T08:00:21.616Z,101935.83
2022-12-01T08:05:24.821Z,101934.38
2022-12-01T08:10:28.334Z,101937.45
2022-12-01T08:15:31.910Z,101935.38
2022-12-01T08:20:35.265Z,101933.73
2022-12-01T08:25:38.776Z,101938.85
2022-12-01T08:30:42.329Z,101938.88
2022-12-01T08:35:45.706Z,101932.17
2022-12-01T08:40:48.916Z,101932.23
2022-12-01T08:45:52.375Z,101935.28
2022-12-01T08:51:03.270Z,101938.20
2022-12-01T08:56:32.651Z,101938.44
2022-12-01T09:01:52.139Z,101938.98
2022-12-01T09:06:57.754Z,101938.55
2022-12-01T09:12:00.794Z,101938.33
2022-12-01T09:17:04.109Z,101938.19
2022-12-01T09:22:07.722Z,101939.11
2022-12-01T09:27:10.926Z,101933.84
2022-12-01T09:32:14.238Z,101928.65
2022-12-01T09:37:17.446Z,101925.69
2022-12-01T09:42:32.212Z,101922.58
2022-12-01T09:47:40.314Z,101917.47
2022-12-01T09:52:48.087Z,101913.41
2022-12-01T09:57:58.829Z,101908.74
2022-12-01T10:03:10.860Z,101904.41
2022-12-01T10:08:26.781Z,101906.03
2022-12-01T10:13:34.380Z,101905.75
2022-12-01T10:18:46.701Z,101903.52
2022-12-01T10:24:23.597Z,101904.48
2022-12-01T10:29:50.080Z,101901.16
2022-12-01T10:34:53.768Z,101898.69
2022-12-01T10:39:58.411Z,101895.03
2022-12-01T10:45:06.225Z,101894.89
2022-12-01T10:50:26.021Z,101894.54
2022-12-01T10:55:34.042Z,101892.82
2022-12-01T11:06:06.238Z,101889.04
2022-12-01T11:11:24.725Z,101889.27
2022-12-01T11:16:38.754Z,101888.77
2022-12-01T11:21:50.839Z,101886.27
2022-12-01T11:26:56.199Z,101884.67
2022-12-01T11:32:01.728Z,101881.11
2022-12-01T11:37:15.175Z,101877.20
2022-12-01T11:42:28.417Z,101872.30
2022-12-01T11:47:31.932Z,101873.77
2022-12-01T11:52:46.060Z,101871.52
2022-12-01T11:58:10.297Z,101867.77
2022-12-01T12:03:39.349Z,101864.16
2022-12-01T12:09:27.266Z,101860.46
2022-12-01T12:14:42.453Z,101855.96
2022-12-01T12:20:43.314Z,101858.61
2022-12-01T12:26:18.678Z,101856.79
2022-12-01T12:31:24.853Z,101854.05
2022-12-01T12:36:28.169Z,101852.70
2022-12-01T12:41:43.452Z,101850.62
2022-12-01T12:47:11.341Z,101846.10
2022-12-01T12:52:23.764Z,101842.80
2022-12-01T12:57:32.909Z,101834.98
2022-12-01T13:03:02.462Z,101829.54
2022-12-01T13:08:16.297Z,101827.92
2022-12-01T13:13:37.833Z,101824.73
2022-12-01T13:18:49.948Z,101822.04
2022-12-01T13:23:54.182Z,101820.16
2022-12-01T13:28:59.298Z,101820.08
2022-12-01T13:34:05.365Z,101819.30
2022-12-01T13:39:20.955Z,101816.42
2022-12-01T13:44:41.423Z,101817.61
2022-12-01T13:49:47.332Z,101820.70
2022-12-01T13:55:09.620Z,101821.75
2022-12-01T14:00:28.081Z,101818.21
2022-12-01T14:05:40.537Z,101818.79
2022-12-01T14:10:58.900Z,101821.91
2022-12-01T14:16:04.683Z,101818.09
2022-12-01T14:21:11.579Z,101813.09
2022-12-01T14:26:21.099Z,101808.19
2022-12-01T14:31:51.115Z,101805.95
2022-12-01T14:37:06.349Z,101806.20
2022-12-01T14:42:53.899Z,101800.98
2022-12-01T14:48:09.902Z,101802.84
2022-12-01T14:53:23.925Z,101802.55
2022-12-01T14:58:32.280Z,101799.40
2022-12-01T15:03:38.290Z,101801.02
2022-12-01T15:08:49.105Z,101797.36
2022-12-01T15:13:57.666Z,101797.54
2022-12-01T15:19:01.338Z,101795.11
2022-12-01T15:24:22.721Z,101793.59
2022-12-01T15:29:37.315Z,101792.20
2022-12-01T15:34:50.459Z,101794.33
2022-12-01T15:45:25.586Z,101797.78
2022-12-01T15:50:46.165Z,101793.11
2022-12-01T15:55:58.315Z,101791.27
2022-12-01T16:01:13.911Z,101794.02
2022-12-01T16:06:18.514Z,101787.81
2022-12-01T16:11:22.441Z,101790.96
2022-12-01T16:16:36.080Z,101787.59
2022-12-01T16:21:44.733Z,101786.67
2022-12-01T16:27:01.452Z,101790.80
2022-12-01T16:32:41.328Z,101793.73
2022-12-01T16:37:44.638Z,101799.48
2022-12-01T16:42:50.097Z,101795.36
2022-12-01T16:47:55.150Z,101797.22
2022-12-01T16:52:58.964Z,101800.36
2022-12-01T16:58:02.586Z,101805.13
2022-12-01T17:03:06.255Z,101803.14
2022-12-01T17:08:11.926Z,101806.55
2022-12-01T17:13:17.134Z,101809.63
2022-12-01T17:18:22.409Z,101816.50
2022-12-01T17:23:26.532Z,101812.16
2022-12-01T17:28:30.876Z,101805.14
2022-12-01T17:33:36.199Z,101804.67
2022-12-01T17:38:43.880Z,101798.02
2022-12-01T17:43:47.222Z,101792.55
2022-12-01T17:48:51.215Z,101794.84
2022-12-01T17:53:55.310Z,101792.19
2022-12-01T17:58:58.895Z,101792.02
2022-12-01T18:04:02.114Z,101790.30
2022-12-01T18:09:07.197Z,101793.15
2022-12-01T18:14:11.388Z,101795.85
2022-12-01T18:19:15.107Z,101788.63
2022-12-01T18:24:19.235Z,101786.49
2022-12-01T18:29:29.018Z,101784.09
2022-12-01T18:34:34.436Z,101789.58
2022-12-01T18:39:38.078Z,101789.99
2022-12-01T18:44:42.615Z,101791.50
2022-12-01T18:49:46.130Z,101793.17
2022-12-01T18:54:50.561Z,101797.42
2022-12-01T18:59:54.360Z,101795.36
2022-12-01T19:04:59.116Z,101790.98
2022-12-01T19:10:08.036Z,101786.36
2022-12-01T19:15:14.671Z,101788.51
2022-12-01T19:20:20.737Z,101792.19
2022-12-01T19:25:24.871Z,101796.67
2022-12-01T19:30:28.194Z,101799.80
2022-12-01T19:35:32.005Z,101800.30
2022-12-01T19:40:37.670Z,101797.95
2022-12-01T19:45:45.852Z,101798.48
2022-12-01T19:50:49.509Z,101794.05
2022-12-01T19:55:53.127Z,101794.55
2022-12-01T20:01:03.302Z,101795.37
2022-12-01T20:06:15.354Z,101795.64
2022-12-01T20:11:19.037Z,101797.86
2022-12-01T20:16:26.244Z,101801.29
2022-12-01T20:21:33.556Z,101798.73
2022-12-01T20:26:40.299Z,101795.40
2022-12-01T20:31:44.609Z,101795.80
2022-12-01T20:36:48.694Z,101794.65
2022-12-01T20:41:52.217Z,101798.77
2022-12-01T20:46:55.628Z,101800.08
2022-12-01T20:51:58.917Z,101798.00
2022-12-01T20:57:02.450Z,101797.55
2022-12-01T21:02:05.908Z,101799.06
2022-12-01T21:07:09.783Z,101799.48
2022-12-01T21:12:33.583Z,101800.77
2022-12-01T21:17:40.068Z,101806.83
2022-12-01T21:22:43.476Z,101814.02
2022-12-01T21:27:48.186Z,101815.56
2022-12-01T21:32:53.092Z,101814.77
2022-12-01T21:38:07.232Z,101813.23
2022-12-01T21:43:22.987Z,101812.25
2022-12-01T21:48:35.459Z,101811.43
2022-12-01T21:53:39.586Z,101816.25
2022-12-01T21:58:44.232Z,101815.98
2022-12-01T22:03:48.052Z,101812.40
2022-12-01T22:08:55.049Z,101811.99
2022-12-01T22:14:14.547Z,101806.67
2022-12-01T22:19:23.686Z,101801.81
2022-12-01T22:24:42.531Z,101804.68
2022-12-01T22:29:48.021Z,101803.13
2022-12-01T22:34:55.329Z,101804.20
2022-12-01T22:39:58.646Z,101803.15
2022-12-01T22:45:14.952Z,101803.86
2022-12-01T22:50:32.597Z,101793.89
2022-12-01T22:55:35.804Z,101789.62
2022-12-01T23:00:39.419Z,101789.22
2022-12-01T23:05:42.730Z,101784.83
2022-12-01T23:10:46.555Z,101780.08
2022-12-01T23:15:53.113Z,101783.24
2022-12-01T23:20:58.110Z,101779.39
2022-12-01T23:26:06.859Z,101782.34
2022-12-01T23:31:10.491Z,101780.25
2022-12-01T23:36:24.001Z,101783.80
2022-12-01T23:41:54.136Z,101779.08
2022-12-01T23:46:59.065Z,101779.23
2022-12-01T23:52:03.525Z,101775.70
2022-12-01T23:57:25.467Z,101777.94
